sensor_id;sensor_type;location;lat;lon;timestamp;temperature;humidity
1453;DHT22;720;47.738;7.998;2022-12-10T00:00:54;3.20;99.10
1453;DHT22;720;47.738;7.998;2022-12-10T00:03:20;3.20;99.10
1453;DHT22;720;47.738;7.998;2022-12-10T00:05:45;3.10;99.20
1453;DHT22;720;47.738;7.998;2022-12-10T00:08:11;3.10;99.30
1453;DHT22;720;47.738;7.998;2022-12-10T00:10:40;3.00;99.50
1453;DHT22;720;47.738;7.998;2022-12-10T00:13:05;3.00;99.60
1453;DHT22;720;47.738;7.998;2022-12-10T00:15:34;3.20;99.60
1453;DHT22;720;47.738;7.998;2022-12-10T00:18:00;3.20;99.60
1453;DHT22;720;47.738;7.998;2022-12-10T00:20:25;3.20;99.40
1453;DHT22;720;47.738;7.998;2022-12-10T00:22:51;3.20;99.30
1453;DHT22;720;47.738;7.998;2022-12-10T00:25:17;3.20;99.30
1453;DHT22;720;47.738;7.998;2022-12-10T00:27:42;3.20;99.30
1453;DHT22;720;47.738;7.998;2022-12-10T00:30:08;3.10;99.20
1453;DHT22;720;47.738;7.998;2022-12-10T00:32:35;3.00;99.30
1453;DHT22;720;47.738;7.998;2022-12-10T00:35:01;2.90;99.40
1453;DHT22;720;47.738;7.998;2022-12-10T00:37:26;2.90;99.60
1453;DHT22;720;47.738;7.998;2022-12-10T00:39:52;2.90;99.80
1453;DHT22;720;47.738;7.998;2022-12-10T00:42:17;3.10;99.90
1453;DHT22;720;47.738;7.998;2022-12-10T00:44:43;3.10;99.80
1453;DHT22;720;47.738;7.998;2022-12-10T00:47:09;3.20;99.60
1453;DHT22;720;47.738;7.998;2022-12-10T00:49:34;3.40;99.60
1453;DHT22;720;47.738;7.998;2022-12-10T00:52:00;3.20;99.40
1453;DHT22;720;47.738;7.998;2022-12-10T00:54:25;3.30;99.40
1453;DHT22;720;47.738;7.998;2022-12-10T00:56:51;2.90;99.90
1453;DHT22;720;47.738;7.998;2022-12-10T00:59:17;3.30;99.50
1453;DHT22;720;47.738;7.998;2022-12-10T01:01:43;3.30;99.20
1453;DHT22;720;47.738;7.998;2022-12-10T01:04:12;3.40;99.00
1453;DHT22;720;47.738;7.998;2022-12-10T01:06:48;3.30;99.90
1453;DHT22;720;47.738;7.998;2022-12-10T01:09:16;3.20;99.20
1453;DHT22;720;47.738;7.998;2022-12-10T01:11:44;3.30;99.40
1453;DHT22;720;47.738;7.998;2022-12-10T01:14:13;3.30;99.30
1453;DHT22;720;47.738;7.998;2022-12-10T01:16:39;2.90;99.90
1453;DHT22;720;47.738;7.998;2022-12-10T01:19:05;3.30;99.20
1453;DHT22;720;47.738;7.998;2022-12-10T01:21:31;3.30;99.10
1453;DHT22;720;47.738;7.998;2022-12-10T01:23:57;3.30;99.00
1453;DHT22;720;47.738;7.998;2022-12-10T01:26:26;3.20;99.00
1453;DHT22;720;47.738;7.998;2022-12-10T01:28:53;3.10;99.10
1453;DHT22;720;47.738;7.998;2022-12-10T01:31:22;3.10;99.30
1453;DHT22;720;47.738;7.998;2022-12-10T01:33:49;3.10;99.50
1453;DHT22;720;47.738;7.998;2022-12-10T01:36:18;3.20;99.60
1453;DHT22;720;47.738;7.998;2022-12-10T01:38:44;3.30;99.60
1453;DHT22;720;47.738;7.998;2022-12-10T01:41:21;3.30;99.50
1453;DHT22;720;47.738;7.998;2022-12-10T01:43:59;3.30;99.40
1453;DHT22;720;47.738;7.998;2022-12-10T01:46:33;3.40;99.30
1453;DHT22;720;47.738;7.998;2022-12-10T01:49:02;3.40;98.80
1453;DHT22;720;47.738;7.998;2022-12-10T01:51:31;3.40;98.80
1453;DHT22;720;47.738;7.998;2022-12-10T01:53:57;3.50;99.10
1453;DHT22;720;47.738;7.998;2022-12-10T01:56:24;3.40;99.10
1453;DHT22;720;47.738;7.998;2022-12-10T01:58:55;3.30;99.10
1453;DHT22;720;47.738;7.998;2022-12-10T02:01:46;3.30;99.10
1453;DHT22;720;47.738;7.998;2022-12-10T02:06:56;3.40;99.90
1453;DHT22;720;47.738;7.998;2022-12-10T02:09:36;3.30;99.10
1453;DHT22;720;47.738;7.998;2022-12-10T02:12:16;3.30;99.20
1453;DHT22;720;47.738;7.998;2022-12-10T02:15:19;3.30;99.20
1453;DHT22;720;47.738;7.998;2022-12-10T02:17:55;3.20;99.20
1453;DHT22;720;47.738;7.998;2022-12-10T02:20:28;3.20;99.40
1453;DHT22;720;47.738;7.998;2022-12-10T02:22:56;3.20;99.30
1453;DHT22;720;47.738;7.998;2022-12-10T02:25:34;3.30;99.30
1453;DHT22;720;47.738;7.998;2022-12-10T02:30:34;3.20;99.90
1453;DHT22;720;47.738;7.998;2022-12-10T02:33:03;3.20;99.70
1453;DHT22;720;47.738;7.998;2022-12-10T02:35:31;3.20;99.60
1453;DHT22;720;47.738;7.998;2022-12-10T02:38:26;3.30;99.60
1453;DHT22;720;47.738;7.998;2022-12-10T02:40:57;3.30;99.20
1453;DHT22;720;47.738;7.998;2022-12-10T02:43:26;3.20;99.10
1453;DHT22;720;47.738;7.998;2022-12-10T02:45:53;3.20;99.40
1453;DHT22;720;47.738;7.998;2022-12-10T02:48:19;3.30;99.70
1453;DHT22;720;47.738;7.998;2022-12-10T02:50:45;3.20;99.50
1453;DHT22;720;47.738;7.998;2022-12-10T02:53:11;3.30;99.50
1453;DHT22;720;47.738;7.998;2022-12-10T02:58:49;3.30;99.40
1453;DHT22;720;47.738;7.998;2022-12-10T03:04:17;3.30;99.60
1453;DHT22;720;47.738;7.998;2022-12-10T03:06:53;3.40;99.90
1453;DHT22;720;47.738;7.998;2022-12-10T03:09:22;3.30;99.30
1453;DHT22;720;47.738;7.998;2022-12-10T03:11:50;3.40;99.10
1453;DHT22;720;47.738;7.998;2022-12-10T03:14:24;3.30;99.00
1453;DHT22;720;47.738;7.998;2022-12-10T03:16:56;3.20;99.90
1453;DHT22;720;47.738;7.998;2022-12-10T03:19:52;3.30;99.00
1453;DHT22;720;47.738;7.998;2022-12-10T03:22:19;3.30;99.10
1453;DHT22;720;47.738;7.998;2022-12-10T03:24:46;3.40;99.00
1453;DHT22;720;47.738;7.998;2022-12-10T03:27:14;3.40;98.80
1453;DHT22;720;47.738;7.998;2022-12-10T03:30:00;3.30;98.90
1453;DHT22;720;47.738;7.998;2022-12-10T03:32:28;3.20;99.10
1453;DHT22;720;47.738;7.998;2022-12-10T03:34:56;3.30;99.20
1453;DHT22;720;47.738;7.998;2022-12-10T03:37:24;3.30;99.30
1453;DHT22;720;47.738;7.998;2022-12-10T03:39:51;3.20;99.20
1453;DHT22;720;47.738;7.998;2022-12-10T03:42:16;3.10;99.00
1453;DHT22;720;47.738;7.998;2022-12-10T03:44:42;3.00;99.00
1453;DHT22;720;47.738;7.998;2022-12-10T03:47:12;3.10;99.20
1453;DHT22;720;47.738;7.998;2022-12-10T03:49:39;3.10;99.20
1453;DHT22;720;47.738;7.998;2022-12-10T03:52:05;3.20;99.20
1453;DHT22;720;47.738;7.998;2022-12-10T03:54:31;3.20;99.20
1453;DHT22;720;47.738;7.998;2022-12-10T03:56:56;3.20;99.90
1453;DHT22;720;47.738;7.998;2022-12-10T03:59:22;3.20;99.30
1453;DHT22;720;47.738;7.998;2022-12-10T04:01:48;3.20;99.20
1453;DHT22;720;47.738;7.998;2022-12-10T04:04:14;3.20;99.10
1453;DHT22;720;47.738;7.998;2022-12-10T04:06:40;3.20;98.70
1453;DHT22;720;47.738;7.998;2022-12-10T04:09:09;3.20;99.00
1453;DHT22;720;47.738;7.998;2022-12-10T04:11:35;3.30;99.00
1453;DHT22;720;47.738;7.998;2022-12-10T04:14:01;3.10;98.80
1453;DHT22;720;47.738;7.998;2022-12-10T04:16:45;3.20;99.90
1453;DHT22;720;47.738;7.998;2022-12-10T04:19:14;3.10;98.90
1453;DHT22;720;47.738;7.998;2022-12-10T04:21:41;3.10;98.90
1453;DHT22;720;47.738;7.998;2022-12-10T04:24:28;3.10;99.00
1453;DHT22;720;47.738;7.998;2022-12-10T04:29:46;3.20;99.00
1453;DHT22;720;47.738;7.998;2022-12-10T04:32:12;3.20;98.90
1453;DHT22;720;47.738;7.998;2022-12-10T04:34:38;3.20;99.00
1453;DHT22;720;47.738;7.998;2022-12-10T04:37:05;3.30;99.10
1453;DHT22;720;47.738;7.998;2022-12-10T04:39:31;3.30;98.70
1453;DHT22;720;47.738;7.998;2022-12-10T04:41:57;3.20;98.40
1453;DHT22;720;47.738;7.998;2022-12-10T04:44:23;3.20;98.60
1453;DHT22;720;47.738;7.998;2022-12-10T04:46:49;3.00;99.90
1453;DHT22;720;47.738;7.998;2022-12-10T04:49:15;3.10;98.70
1453;DHT22;720;47.738;7.998;2022-12-10T04:51:41;3.20;99.00
1453;DHT22;720;47.738;7.998;2022-12-10T04:54:07;3.20;99.00
1453;DHT22;720;47.738;7.998;2022-12-10T04:56:33;3.20;99.00
1453;DHT22;720;47.738;7.998;2022-12-10T04:58:59;3.30;99.00
1453;DHT22;720;47.738;7.998;2022-12-10T05:01:26;3.10;98.80
1453;DHT22;720;47.738;7.998;2022-12-10T05:03:52;3.20;99.00
1453;DHT22;720;47.738;7.998;2022-12-10T05:06:19;3.10;99.20
1453;DHT22;720;47.738;7.998;2022-12-10T05:08:45;3.00;99.20
1453;DHT22;720;47.738;7.998;2022-12-10T05:11:13;3.10;99.10
1453;DHT22;720;47.738;7.998;2022-12-10T05:13:39;3.00;98.90
1453;DHT22;720;47.738;7.998;2022-12-10T05:16:07;3.00;98.80
1453;DHT22;720;47.738;7.998;2022-12-10T05:18:34;3.00;98.80
1453;DHT22;720;47.738;7.998;2022-12-10T05:21:00;3.00;98.80
1453;DHT22;720;47.738;7.998;2022-12-10T05:23:26;2.90;98.70
1453;DHT22;720;47.738;7.998;2022-12-10T05:28:40;2.70;98.60
1453;DHT22;720;47.738;7.998;2022-12-10T05:31:14;2.70;98.70
1453;DHT22;720;47.738;7.998;2022-12-10T05:33:40;2.60;98.80
1453;DHT22;720;47.738;7.998;2022-12-10T05:36:07;2.60;98.90
1453;DHT22;720;47.738;7.998;2022-12-10T05:38:33;2.60;98.90
1453;DHT22;720;47.738;7.998;2022-12-10T05:41:06;2.60;98.80
1453;DHT22;720;47.738;7.998;2022-12-10T05:43:32;2.60;98.70
1453;DHT22;720;47.738;7.998;2022-12-10T05:46:03;2.60;98.80
1453;DHT22;720;47.738;7.998;2022-12-10T05:48:29;2.70;98.70
1453;DHT22;720;47.738;7.998;2022-12-10T05:50:56;2.70;98.80
1453;DHT22;720;47.738;7.998;2022-12-10T05:53:22;2.80;98.70
1453;DHT22;720;47.738;7.998;2022-12-10T05:55:48;2.70;98.40
1453;DHT22;720;47.738;7.998;2022-12-10T05:58:14;2.80;98.40
1453;DHT22;720;47.738;7.998;2022-12-10T06:00:40;2.70;98.30
1453;DHT22;720;47.738;7.998;2022-12-10T06:03:07;2.70;98.40
1453;DHT22;720;47.738;7.998;2022-12-10T06:05:40;2.70;98.40
1453;DHT22;720;47.738;7.998;2022-12-10T06:08:06;2.50;98.30
1453;DHT22;720;47.738;7.998;2022-12-10T06:10:35;2.50;98.60
1453;DHT22;720;47.738;7.998;2022-12-10T06:13:02;2.70;98.70
1453;DHT22;720;47.738;7.998;2022-12-10T06:15:28;2.70;98.40
1453;DHT22;720;47.738;7.998;2022-12-10T06:17:55;2.70;98.10
1453;DHT22;720;47.738;7.998;2022-12-10T06:20:21;2.50;98.20
1453;DHT22;720;47.738;7.998;2022-12-10T06:22:46;2.40;98.50
1453;DHT22;720;47.738;7.998;2022-12-10T06:25:12;2.40;98.50
1453;DHT22;720;47.738;7.998;2022-12-10T06:27:38;2.30;98.60
1453;DHT22;720;47.738;7.998;2022-12-10T06:30:04;2.40;99.00
1453;DHT22;720;47.738;7.998;2022-12-10T06:32:30;2.50;99.10
1453;DHT22;720;47.738;7.998;2022-12-10T06:34:56;2.60;98.70
1453;DHT22;720;47.738;7.998;2022-12-10T06:37:21;2.60;98.40
1453;DHT22;720;47.738;7.998;2022-12-10T06:39:49;2.50;98.20
1453;DHT22;720;47.738;7.998;2022-12-10T06:42:15;2.40;98.30
1453;DHT22;720;47.738;7.998;2022-12-10T06:44:40;2.40;98.60
1453;DHT22;720;47.738;7.998;2022-12-10T06:47:06;2.50;98.70
1453;DHT22;720;47.738;7.998;2022-12-10T06:49:31;2.50;98.50
1453;DHT22;720;47.738;7.998;2022-12-10T06:51:57;2.50;98.50
1453;DHT22;720;47.738;7.998;2022-12-10T06:54:23;2.50;98.60
1453;DHT22;720;47.738;7.998;2022-12-10T06:56:48;2.60;99.90
1453;DHT22;720;47.738;7.998;2022-12-10T06:59:14;2.50;98.70
1453;DHT22;720;47.738;7.998;2022-12-10T07:01:40;2.50;98.70
1453;DHT22;720;47.738;7.998;2022-12-10T07:04:05;2.50;98.60
1453;DHT22;720;47.738;7.998;2022-12-10T07:06:32;2.50;98.70
1453;DHT22;720;47.738;7.998;2022-12-10T07:08:57;2.50;98.50
1453;DHT22;720;47.738;7.998;2022-12-10T07:11:24;2.40;98.20
1453;DHT22;720;47.738;7.998;2022-12-10T07:13:50;2.30;98.20
1453;DHT22;720;47.738;7.998;2022-12-10T07:16:24;2.30;98.30
1453;DHT22;720;47.738;7.998;2022-12-10T07:18:51;2.10;98.20
1453;DHT22;720;47.738;7.998;2022-12-10T07:21:25;2.10;98.20
1453;DHT22;720;47.738;7.998;2022-12-10T07:23:52;2.10;98.30
1453;DHT22;720;47.738;7.998;2022-12-10T07:26:19;2.10;98.30
1453;DHT22;720;47.738;7.998;2022-12-10T07:28:45;2.20;98.40
1453;DHT22;720;47.738;7.998;2022-12-10T07:31:11;2.20;98.30
1453;DHT22;720;47.738;7.998;2022-12-10T07:33:37;2.30;98.30
1453;DHT22;720;47.738;7.998;2022-12-10T07:36:10;2.40;98.00
1453;DHT22;720;47.738;7.998;2022-12-10T07:38:37;2.20;97.80
1453;DHT22;720;47.738;7.998;2022-12-10T07:41:04;2.20;97.90
1453;DHT22;720;47.738;7.998;2022-12-10T07:43:32;2.30;97.90
1453;DHT22;720;47.738;7.998;2022-12-10T07:46:07;2.30;97.70
1453;DHT22;720;47.738;7.998;2022-12-10T07:48:34;2.40;97.70
1453;DHT22;720;47.738;7.998;2022-12-10T07:50:59;2.40;97.50
1453;DHT22;720;47.738;7.998;2022-12-10T07:53:25;2.40;97.50
1453;DHT22;720;47.738;7.998;2022-12-10T07:55:51;2.30;97.50
1453;DHT22;720;47.738;7.998;2022-12-10T07:58:16;2.20;97.40
1453;DHT22;720;47.738;7.998;2022-12-10T08:00:42;2.20;97.70
1453;DHT22;720;47.738;7.998;2022-12-10T08:03:07;2.30;97.90
1453;DHT22;720;47.738;7.998;2022-12-10T08:05:33;2.40;97.80
1453;DHT22;720;47.738;7.998;2022-12-10T08:07:59;2.50;97.50
1453;DHT22;720;47.738;7.998;2022-12-10T08:10:24;2.60;97.30
1453;DHT22;720;47.738;7.998;2022-12-10T08:12:50;2.60;97.30
1453;DHT22;720;47.738;7.998;2022-12-10T08:15:16;2.70;97.30
1453;DHT22;720;47.738;7.998;2022-12-10T08:17:41;2.60;97.10
1453;DHT22;720;47.738;7.998;2022-12-10T08:20:07;2.50;97.10
1453;DHT22;720;47.738;7.998;2022-12-10T08:22:34;2.60;97.10
1453;DHT22;720;47.738;7.998;2022-12-10T08:25:01;2.60;97.10
1453;DHT22;720;47.738;7.998;2022-12-10T08:27:26;2.60;97.10
1453;DHT22;720;47.738;7.998;2022-12-10T08:29:52;2.60;97.10
1453;DHT22;720;47.738;7.998;2022-12-10T08:32:18;2.60;97.40
1453;DHT22;720;47.738;7.998;2022-12-10T08:34:44;2.70;97.20
1453;DHT22;720;47.738;7.998;2022-12-10T08:37:09;2.70;97.20
1453;DHT22;720;47.738;7.998;2022-12-10T08:39:35;2.70;97.20
1453;DHT22;720;47.738;7.998;2022-12-10T08:42:00;2.60;97.10
1453;DHT22;720;47.738;7.998;2022-12-10T08:44:26;2.70;97.20
1453;DHT22;720;47.738;7.998;2022-12-10T08:46:52;2.90;99.90
1453;DHT22;720;47.738;7.998;2022-12-10T08:49:17;2.80;96.60
1453;DHT22;720;47.738;7.998;2022-12-10T08:51:43;2.90;96.40
1453;DHT22;720;47.738;7.998;2022-12-10T08:54:09;2.90;96.30
1453;DHT22;720;47.738;7.998;2022-12-10T08:56:34;3.00;96.60
1453;DHT22;720;47.738;7.998;2022-12-10T08:59:00;3.10;96.60
1453;DHT22;720;47.738;7.998;2022-12-10T09:01:26;3.10;96.30
1453;DHT22;720;47.738;7.998;2022-12-10T09:03:51;3.20;96.30
1453;DHT22;720;47.738;7.998;2022-12-10T09:06:22;3.30;96.40
1453;DHT22;720;47.738;7.998;2022-12-10T09:08:49;3.50;96.20
1453;DHT22;720;47.738;7.998;2022-12-10T09:11:21;3.50;95.80
1453;DHT22;720;47.738;7.998;2022-12-10T09:13:48;3.70;95.90
1453;DHT22;720;47.738;7.998;2022-12-10T09:16:13;3.80;95.80
1453;DHT22;720;47.738;7.998;2022-12-10T09:18:39;3.90;95.50
1453;DHT22;720;47.738;7.998;2022-12-10T09:21:10;3.90;95.20
1453;DHT22;720;47.738;7.998;2022-12-10T09:23:38;3.90;95.10
1453;DHT22;720;47.738;7.998;2022-12-10T09:26:08;3.80;95.10
1453;DHT22;720;47.738;7.998;2022-12-10T09:28:35;3.90;95.20
1453;DHT22;720;47.738;7.998;2022-12-10T09:31:02;3.80;95.00
1453;DHT22;720;47.738;7.998;2022-12-10T09:33:28;3.80;95.20
1453;DHT22;720;47.738;7.998;2022-12-10T09:35:54;3.80;95.30
1453;DHT22;720;47.738;7.998;2022-12-10T09:38:19;3.70;94.90
1453;DHT22;720;47.738;7.998;2022-12-10T09:40:54;3.60;94.90
1453;DHT22;720;47.738;7.998;2022-12-10T09:43:45;3.60;94.80
1453;DHT22;720;47.738;7.998;2022-12-10T09:47:12;3.50;94.90
1453;DHT22;720;47.738;7.998;2022-12-10T09:52:18;3.50;94.40
1453;DHT22;720;47.738;7.998;2022-12-10T09:54:55;3.50;94.50
1453;DHT22;720;47.738;7.998;2022-12-10T09:59:55;3.20;94.10
1453;DHT22;720;47.738;7.998;2022-12-10T10:02:29;3.20;94.70
1453;DHT22;720;47.738;7.998;2022-12-10T10:07:35;3.20;94.60
1453;DHT22;720;47.738;7.998;2022-12-10T10:10:21;3.20;94.70
1453;DHT22;720;47.738;7.998;2022-12-10T10:12:48;3.20;94.30
1453;DHT22;720;47.738;7.998;2022-12-10T10:15:18;3.00;94.20
1453;DHT22;720;47.738;7.998;2022-12-10T10:17:46;3.00;94.70
1453;DHT22;720;47.738;7.998;2022-12-10T10:20:13;3.10;95.10
1453;DHT22;720;47.738;7.998;2022-12-10T10:22:40;3.00;94.60
1453;DHT22;720;47.738;7.998;2022-12-10T10:25:16;2.90;94.50
1453;DHT22;720;47.738;7.998;2022-12-10T10:27:42;2.80;94.50
1453;DHT22;720;47.738;7.998;2022-12-10T10:30:20;2.90;94.70
1453;DHT22;720;47.738;7.998;2022-12-10T10:32:55;2.80;94.80
1453;DHT22;720;47.738;7.998;2022-12-10T10:35:29;2.80;94.80
1453;DHT22;720;47.738;7.998;2022-12-10T10:38:06;2.90;94.80
1453;DHT22;720;47.738;7.998;2022-12-10T10:40:40;2.80;95.00
1453;DHT22;720;47.738;7.998;2022-12-10T10:43:06;2.90;95.10
1453;DHT22;720;47.738;7.998;2022-12-10T10:45:42;3.00;95.10
1453;DHT22;720;47.738;7.998;2022-12-10T10:48:19;3.00;95.00
1453;DHT22;720;47.738;7.998;2022-12-10T10:51:07;3.10;94.80
1453;DHT22;720;47.738;7.998;2022-12-10T10:56:25;3.20;94.60
1453;DHT22;720;47.738;7.998;2022-12-10T10:59:07;3.20;94.50
1453;DHT22;720;47.738;7.998;2022-12-10T11:01:55;3.30;94.60
1453;DHT22;720;47.738;7.998;2022-12-10T11:04:31;3.30;94.70
1453;DHT22;720;47.738;7.998;2022-12-10T11:07:03;3.30;99.90
1453;DHT22;720;47.738;7.998;2022-12-10T11:09:32;3.30;94.90
1453;DHT22;720;47.738;7.998;2022-12-10T11:12:01;3.30;94.90
1453;DHT22;720;47.738;7.998;2022-12-10T11:14:33;3.30;95.00
1453;DHT22;720;47.738;7.998;2022-12-10T11:17:18;3.30;94.50
1453;DHT22;720;47.738;7.998;2022-12-10T11:22:56;3.30;94.00
1453;DHT22;720;47.738;7.998;2022-12-10T11:37:14;3.80;94.50
1453;DHT22;720;47.738;7.998;2022-12-10T11:51:27;3.40;93.50
1453;DHT22;720;47.738;7.998;2022-12-10T11:54:06;3.40;93.70
1453;DHT22;720;47.738;7.998;2022-12-10T11:56:49;3.30;94.10
1453;DHT22;720;47.738;7.998;2022-12-10T12:04:28;3.30;93.70
1453;DHT22;720;47.738;7.998;2022-12-10T12:10:05;3.30;94.10
1453;DHT22;720;47.738;7.998;2022-12-10T12:15:41;3.30;93.60
1453;DHT22;720;47.738;7.998;2022-12-10T12:20:59;3.40;93.60
1453;DHT22;720;47.738;7.998;2022-12-10T12:26:15;3.30;94.10
1453;DHT22;720;47.738;7.998;2022-12-10T12:28:47;3.30;93.70
1453;DHT22;720;47.738;7.998;2022-12-10T12:31:24;3.20;93.10
1453;DHT22;720;47.738;7.998;2022-12-10T12:34:00;3.20;93.00
1453;DHT22;720;47.738;7.998;2022-12-10T12:36:31;3.30;93.50
1453;DHT22;720;47.738;7.998;2022-12-10T12:39:20;3.40;93.50
1453;DHT22;720;47.738;7.998;2022-12-10T12:42:01;3.50;93.80
1453;DHT22;720;47.738;7.998;2022-12-10T12:47:18;3.50;98.20
1453;DHT22;720;47.738;7.998;2022-12-10T12:49:44;3.60;93.00
1453;DHT22;720;47.738;7.998;2022-12-10T12:52:28;3.60;92.60
1453;DHT22;720;47.738;7.998;2022-12-10T12:55:04;3.60;92.70
1453;DHT22;720;47.738;7.998;2022-12-10T12:57:48;3.60;92.70
1453;DHT22;720;47.738;7.998;2022-12-10T13:00:19;3.50;92.80
1453;DHT22;720;47.738;7.998;2022-12-10T13:02:55;3.50;93.10
1453;DHT22;720;47.738;7.998;2022-12-10T13:13:31;3.40;92.70
1453;DHT22;720;47.738;7.998;2022-12-10T13:19:30;3.10;93.00
1453;DHT22;720;47.738;7.998;2022-12-10T13:25:17;2.90;93.90
1453;DHT22;720;47.738;7.998;2022-12-10T13:27:57;3.10;94.30
1453;DHT22;720;47.738;7.998;2022-12-10T13:30:31;3.10;94.20
1453;DHT22;720;47.738;7.998;2022-12-10T13:33:10;3.20;93.30
1453;DHT22;720;47.738;7.998;2022-12-10T13:35:50;3.20;93.20
1453;DHT22;720;47.738;7.998;2022-12-10T13:38:23;3.20;92.80
1453;DHT22;720;47.738;7.998;2022-12-10T13:40:59;3.10;93.00
1453;DHT22;720;47.738;7.998;2022-12-10T13:43:55;3.10;93.70
1453;DHT22;720;47.738;7.998;2022-12-10T13:49:24;3.10;93.80
1453;DHT22;720;47.738;7.998;2022-12-10T13:55:08;3.00;93.00
1453;DHT22;720;47.738;7.998;2022-12-10T14:01:21;2.90;93.10
1453;DHT22;720;47.738;7.998;2022-12-10T14:06:18;2.70;93.30
1453;DHT22;720;47.738;7.998;2022-12-10T14:09:04;2.80;92.90
1453;DHT22;720;47.738;7.998;2022-12-10T14:11:34;2.80;92.60
1453;DHT22;720;47.738;7.998;2022-12-10T14:14:02;2.70;93.20
1453;DHT22;720;47.738;7.998;2022-12-10T14:16:32;2.60;93.10
1453;DHT22;720;47.738;7.998;2022-12-10T14:19:05;2.60;93.20
1453;DHT22;720;47.738;7.998;2022-12-10T14:21:34;2.60;93.30
1453;DHT22;720;47.738;7.998;2022-12-10T14:24:00;2.50;93.30
1453;DHT22;720;47.738;7.998;2022-12-10T14:26:29;2.50;93.40
1453;DHT22;720;47.738;7.998;2022-12-10T14:29:00;2.50;93.50
1453;DHT22;720;47.738;7.998;2022-12-10T14:31:38;2.50;93.80
1453;DHT22;720;47.738;7.998;2022-12-10T14:34:07;2.50;94.00
1453;DHT22;720;47.738;7.998;2022-12-10T14:36:37;2.50;94.40
1453;DHT22;720;47.738;7.998;2022-12-10T14:39:14;2.40;93.40
1453;DHT22;720;47.738;7.998;2022-12-10T14:41:41;2.40;93.40
1453;DHT22;720;47.738;7.998;2022-12-10T14:44:12;2.30;93.00
1453;DHT22;720;47.738;7.998;2022-12-10T14:46:39;2.30;93.50
1453;DHT22;720;47.738;7.998;2022-12-10T14:49:07;2.30;93.40
1453;DHT22;720;47.738;7.998;2022-12-10T14:51:36;2.30;93.50
1453;DHT22;720;47.738;7.998;2022-12-10T14:54:02;2.30;93.50
1453;DHT22;720;47.738;7.998;2022-12-10T14:56:32;2.30;93.70
1453;DHT22;720;47.738;7.998;2022-12-10T14:59:15;2.30;93.20
1453;DHT22;720;47.738;7.998;2022-12-10T15:01:49;2.40;92.90
1453;DHT22;720;47.738;7.998;2022-12-10T15:04:19;2.30;93.50
1453;DHT22;720;47.738;7.998;2022-12-10T15:06:45;2.00;96.20
1453;DHT22;720;47.738;7.998;2022-12-10T15:09:23;2.20;93.40
1453;DHT22;720;47.738;7.998;2022-12-10T15:11:54;2.10;93.60
1453;DHT22;720;47.738;7.998;2022-12-10T15:14:21;2.00;94.00
1453;DHT22;720;47.738;7.998;2022-12-10T15:16:47;2.00;96.90
1453;DHT22;720;47.738;7.998;2022-12-10T15:19:30;2.10;94.50
1453;DHT22;720;47.738;7.998;2022-12-10T15:22:20;2.10;94.40
1453;DHT22;720;47.738;7.998;2022-12-10T15:24:46;1.80;94.10
1453;DHT22;720;47.738;7.998;2022-12-10T15:27:23;1.50;94.50
1453;DHT22;720;47.738;7.998;2022-12-10T15:29:50;1.40;95.10
1453;DHT22;720;47.738;7.998;2022-12-10T15:32:23;1.40;95.00
1453;DHT22;720;47.738;7.998;2022-12-10T15:34:59;1.30;94.90
1453;DHT22;720;47.738;7.998;2022-12-10T15:37:33;1.20;95.30
1453;DHT22;720;47.738;7.998;2022-12-10T15:40:03;1.20;95.80
1453;DHT22;720;47.738;7.998;2022-12-10T15:42:42;1.30;96.20
1453;DHT22;720;47.738;7.998;2022-12-10T15:45:19;1.40;96.30
1453;DHT22;720;47.738;7.998;2022-12-10T15:47:45;1.40;96.20
1453;DHT22;720;47.738;7.998;2022-12-10T15:50:11;1.40;96.20
1453;DHT22;720;47.738;7.998;2022-12-10T15:52:37;1.30;96.30
1453;DHT22;720;47.738;7.998;2022-12-10T15:55:04;1.40;96.40
1453;DHT22;720;47.738;7.998;2022-12-10T15:57:32;1.40;96.40
1453;DHT22;720;47.738;7.998;2022-12-10T16:00:01;1.40;96.40
1453;DHT22;720;47.738;7.998;2022-12-10T16:02:44;1.40;96.00
1453;DHT22;720;47.738;7.998;2022-12-10T16:07:42;1.30;95.80
1453;DHT22;720;47.738;7.998;2022-12-10T16:10:10;1.30;96.00
1453;DHT22;720;47.738;7.998;2022-12-10T16:12:37;1.30;96.10
1453;DHT22;720;47.738;7.998;2022-12-10T16:15:04;1.30;96.10
1453;DHT22;720;47.738;7.998;2022-12-10T16:17:30;1.30;96.30
1453;DHT22;720;47.738;7.998;2022-12-10T16:19:58;1.30;96.40
1453;DHT22;720;47.738;7.998;2022-12-10T16:22:24;1.20;96.40
1453;DHT22;720;47.738;7.998;2022-12-10T16:24:49;1.20;96.50
1453;DHT22;720;47.738;7.998;2022-12-10T16:27:15;1.10;96.50
1453;DHT22;720;47.738;7.998;2022-12-10T16:29:42;1.10;96.60
1453;DHT22;720;47.738;7.998;2022-12-10T16:32:12;1.10;96.60
1453;DHT22;720;47.738;7.998;2022-12-10T16:34:39;1.20;96.80
1453;DHT22;720;47.738;7.998;2022-12-10T16:37:05;1.20;96.90
1453;DHT22;720;47.738;7.998;2022-12-10T16:39:31;1.10;96.80
1453;DHT22;720;47.738;7.998;2022-12-10T16:41:57;1.20;96.90
1453;DHT22;720;47.738;7.998;2022-12-10T16:44:22;1.20;96.80
1453;DHT22;720;47.738;7.998;2022-12-10T16:46:48;1.20;99.90
1453;DHT22;720;47.738;7.998;2022-12-10T16:49:14;1.40;96.60
1453;DHT22;720;47.738;7.998;2022-12-10T16:51:40;1.40;96.50
1453;DHT22;720;47.738;7.998;2022-12-10T16:54:09;1.40;96.60
1453;DHT22;720;47.738;7.998;2022-12-10T16:56:36;1.50;96.70
1453;DHT22;720;47.738;7.998;2022-12-10T16:59:02;1.50;96.50
1453;DHT22;720;47.738;7.998;2022-12-10T17:01:29;1.50;96.30
1453;DHT22;720;47.738;7.998;2022-12-10T17:03:56;1.40;96.00
1453;DHT22;720;47.738;7.998;2022-12-10T17:06:22;1.40;96.10
1453;DHT22;720;47.738;7.998;2022-12-10T17:08:48;1.40;96.30
1453;DHT22;720;47.738;7.998;2022-12-10T17:11:15;1.30;96.30
1453;DHT22;720;47.738;7.998;2022-12-10T17:14:01;1.40;96.40
1453;DHT22;720;47.738;7.998;2022-12-10T17:16:27;1.30;96.30
1453;DHT22;720;47.738;7.998;2022-12-10T17:18:53;1.30;96.40
1453;DHT22;720;47.738;7.998;2022-12-10T17:21:19;1.30;96.30
1453;DHT22;720;47.738;7.998;2022-12-10T17:23:45;1.30;96.30
1453;DHT22;720;47.738;7.998;2022-12-10T17:26:31;1.30;96.20
1453;DHT22;720;47.738;7.998;2022-12-10T17:29:05;1.30;96.00
1453;DHT22;720;47.738;7.998;2022-12-10T17:31:32;1.30;96.00
1453;DHT22;720;47.738;7.998;2022-12-10T17:33:58;1.30;96.00
1453;DHT22;720;47.738;7.998;2022-12-10T17:36:23;1.20;96.00
1453;DHT22;720;47.738;7.998;2022-12-10T17:38:49;1.20;96.10
1453;DHT22;720;47.738;7.998;2022-12-10T17:41:15;1.20;96.10
1453;DHT22;720;47.738;7.998;2022-12-10T17:43:41;1.20;96.10
1453;DHT22;720;47.738;7.998;2022-12-10T17:46:12;1.10;96.00
1453;DHT22;720;47.738;7.998;2022-12-10T17:48:39;1.00;95.70
1453;DHT22;720;47.738;7.998;2022-12-10T17:51:05;0.90;95.60
1453;DHT22;720;47.738;7.998;2022-12-10T17:53:30;0.80;95.70
1453;DHT22;720;47.738;7.998;2022-12-10T17:55:59;0.80;95.80
1453;DHT22;720;47.738;7.998;2022-12-10T17:58:26;0.80;95.80
1453;DHT22;720;47.738;7.998;2022-12-10T18:00:52;0.90;95.80
1453;DHT22;720;47.738;7.998;2022-12-10T18:03:19;0.90;95.80
1453;DHT22;720;47.738;7.998;2022-12-10T18:05:45;0.80;95.70
1453;DHT22;720;47.738;7.998;2022-12-10T18:08:15;0.70;95.70
1453;DHT22;720;47.738;7.998;2022-12-10T18:10:43;0.70;95.70
1453;DHT22;720;47.738;7.998;2022-12-10T18:13:09;0.40;95.50
1453;DHT22;720;47.738;7.998;2022-12-10T18:15:35;0.40;95.80
1453;DHT22;720;47.738;7.998;2022-12-10T18:18:01;0.40;96.10
1453;DHT22;720;47.738;7.998;2022-12-10T18:22:53;0.30;95.90
1453;DHT22;720;47.738;7.998;2022-12-10T18:25:19;0.40;95.80
1453;DHT22;720;47.738;7.998;2022-12-10T18:27:45;0.20;95.60
1453;DHT22;720;47.738;7.998;2022-12-10T18:30:20;0.10;95.60
1453;DHT22;720;47.738;7.998;2022-12-10T18:32:46;0.00;95.80
1453;DHT22;720;47.738;7.998;2022-12-10T18:35:12;0.00;96.00